createdAt,value
2022-12-03T00:00:43.138Z,34.90
2022-12-03T00:03:24.118Z,34.90
2022-12-03T00:05:55.018Z,32.20
2022-12-03T00:08:25.364Z,34.30
2022-12-03T00:10:56.182Z,34.80
2022-12-03T00:13:26.818Z,37.70
2022-12-03T00:29:40.641Z,35.10
2022-12-03T00:32:11.105Z,33.40
2022-12-03T00:34:41.637Z,35.60
2022-12-03T00:37:12.125Z,30.00
2022-12-03T00:39:42.859Z,34.50
2022-12-03T00:42:13.252Z,33.80
2022-12-03T00:44:44.051Z,30.60
2022-12-03T00:47:14.792Z,34.30
2022-12-03T00:49:45.627Z,34.70
2022-12-03T00:52:16.213Z,39.50
2022-12-03T00:54:46.985Z,34.70
2022-12-03T00:57:17.285Z,32.40
2022-12-03T00:59:48.003Z,34.50
2022-12-03T01:02:18.568Z,34.10
2022-12-03T01:04:50.465Z,33.50
2022-12-03T01:07:21.170Z,35.60
2022-12-03T01:09:52.017Z,31.60
2022-12-03T01:12:22.489Z,33.30
2022-12-03T01:14:54.506Z,37.00
2022-12-03T01:17:25.185Z,33.30
2022-12-03T01:19:56.330Z,32.40
2022-12-03T01:22:27.319Z,31.10
2022-12-03T01:24:58.117Z,30.90
2022-12-03T01:27:29.245Z,30.80
2022-12-03T01:29:59.942Z,30.40
2022-12-03T01:32:30.613Z,36.80
2022-12-03T01:35:01.552Z,33.30
2022-12-03T01:37:32.410Z,31.30
2022-12-03T01:40:03.422Z,32.20
2022-12-03T01:42:35.181Z,33.60
2022-12-03T01:45:06.542Z,31.30
2022-12-03T01:47:38.024Z,30.00
2022-12-03T01:50:15.475Z,33.10
2022-12-03T01:52:46.415Z,34.40
2022-12-03T01:55:18.714Z,34.10
2022-12-03T01:57:49.630Z,33.90
2022-12-03T02:00:22.142Z,31.20
2022-12-03T02:02:54.078Z,31.50
2022-12-03T02:05:26.648Z,35.90
2022-12-03T02:07:57.721Z,30.40
2022-12-03T02:10:31.671Z,32.40
2022-12-03T02:13:03.671Z,34.50
2022-12-03T02:15:34.684Z,34.40
2022-12-03T02:18:05.927Z,35.40
2022-12-03T02:20:39.426Z,36.20
2022-12-03T02:23:12.106Z,33.00
2022-12-03T02:25:43.081Z,34.60
2022-12-03T02:28:13.471Z,33.10
2022-12-03T02:30:44.433Z,36.50
2022-12-03T02:33:14.825Z,38.80
2022-12-03T02:35:45.909Z,35.90
2022-12-03T02:38:18.547Z,39.30
2022-12-03T02:40:50.817Z,35.10
2022-12-03T02:43:21.653Z,37.80
2022-12-03T02:45:53.462Z,36.80
2022-12-03T02:48:24.958Z,36.70
2022-12-03T02:50:57.127Z,41.00
2022-12-03T02:53:32.267Z,38.90
2022-12-03T02:56:03.353Z,39.60
2022-12-03T02:58:34.238Z,36.90
2022-12-03T03:01:05.995Z,37.50
2022-12-03T03:03:38.164Z,38.70
2022-12-03T03:06:10.136Z,37.00
2022-12-03T03:08:41.470Z,39.10
2022-12-03T03:11:12.559Z,39.40
2022-12-03T03:13:43.553Z,39.40
2022-12-03T03:16:14.542Z,37.80
2022-12-03T03:18:45.123Z,35.10
2022-12-03T03:21:16.403Z,36.80
2022-12-03T03:23:46.896Z,38.30
2022-12-03T03:26:17.874Z,37.30
2022-12-03T03:28:50.168Z,40.30
2022-12-03T03:31:24.304Z,40.50
2022-12-03T03:33:55.055Z,36.50
2022-12-03T03:36:27.422Z,37.00
2022-12-03T03:38:58.051Z,32.10
2022-12-03T03:41:30.421Z,34.90
2022-12-03T03:44:01.163Z,35.70
2022-12-03T03:46:33.829Z,39.60
2022-12-03T03:49:04.875Z,37.60
2022-12-03T03:51:36.404Z,39.20
2022-12-03T03:54:07.388Z,37.60
2022-12-03T03:56:38.485Z,36.10
2022-12-03T03:59:08.972Z,36.50
2022-12-03T04:01:40.199Z,37.60
2022-12-03T04:04:16.383Z,35.20
2022-12-03T04:06:47.530Z,34.20
2022-12-03T04:09:18.014Z,33.90
2022-12-03T04:12:06.398Z,35.10
2022-12-03T04:14:36.985Z,34.00
2022-12-03T04:17:07.825Z,32.70
2022-12-03T04:19:38.146Z,35.70
2022-12-03T04:22:26.802Z,39.20
2022-12-03T04:25:17.603Z,40.10
2022-12-03T04:28:06.361Z,36.50
2022-12-03T04:30:37.536Z,38.70
2022-12-03T04:33:26.766Z,37.80
2022-12-03T04:35:57.422Z,37.20
2022-12-03T04:38:28.934Z,38.90
2022-12-03T04:41:02.553Z,39.80
2022-12-03T04:43:34.634Z,36.90
2022-12-03T04:46:05.240Z,36.50
2022-12-03T04:48:36.183Z,39.10
2022-12-03T04:51:07.134Z,34.60
2022-12-03T04:53:41.889Z,36.10
2022-12-03T04:56:16.580Z,36.20
2022-12-03T04:58:47.822Z,35.20
2022-12-03T05:01:19.760Z,36.50
2022-12-03T05:03:50.413Z,36.70
2022-12-03T05:06:21.098Z,36.90
2022-12-03T05:08:51.792Z,40.50
2022-12-03T05:11:22.613Z,40.20
2022-12-03T05:13:53.913Z,38.30
2022-12-03T05:16:24.646Z,37.60
2022-12-03T05:18:55.538Z,38.30
2022-12-03T05:21:26.264Z,39.10
2022-12-03T05:23:57.412Z,33.20
2022-12-03T05:26:28.137Z,37.10
2022-12-03T05:28:58.871Z,35.60
2022-12-03T05:31:29.576Z,33.40
2022-12-03T05:34:00.548Z,35.40
2022-12-03T05:36:31.212Z,35.40
2022-12-03T05:39:01.806Z,38.90
2022-12-03T05:41:49.818Z,33.80
2022-12-03T05:44:20.884Z,38.30
2022-12-03T05:46:51.554Z,35.50
2022-12-03T05:49:22.252Z,34.20
2022-12-03T05:51:58.209Z,33.10
2022-12-03T05:54:29.446Z,34.40
2022-12-03T05:57:00.218Z,38.20
2022-12-03T05:59:31.019Z,36.70
2022-12-03T06:02:01.790Z,42.50
2022-12-03T06:04:32.705Z,34.50
2022-12-03T06:07:03.421Z,37.60
2022-12-03T06:09:34.054Z,34.00
2022-12-03T06:12:06.854Z,34.90
2022-12-03T06:14:37.570Z,36.30
2022-12-03T06:17:08.705Z,35.60
2022-12-03T06:19:39.554Z,36.70
2022-12-03T06:22:10.227Z,35.20
2022-12-03T06:24:41.117Z,35.90
2022-12-03T06:27:11.846Z,37.20
2022-12-03T06:29:42.482Z,35.00
2022-12-03T06:32:13.924Z,34.00
2022-12-03T06:34:44.867Z,34.80
2022-12-03T06:37:15.801Z,37.30
2022-12-03T06:39:46.440Z,36.60
2022-12-03T06:42:17.075Z,37.30
2022-12-03T06:44:47.652Z,36.50
2022-12-03T06:47:18.346Z,35.60
2022-12-03T06:49:49.065Z,34.80
2022-12-03T06:52:19.789Z,36.90
2022-12-03T06:54:50.583Z,34.80
2022-12-03T06:57:21.159Z,36.60
2022-12-03T06:59:52.145Z,37.50
2022-12-03T07:02:23.231Z,39.50
2022-12-03T07:04:54.565Z,38.70
2022-12-03T07:07:25.553Z,40.20
2022-12-03T07:09:56.321Z,38.20
2022-12-03T07:12:26.884Z,35.00
2022-12-03T07:14:57.531Z,39.10
2022-12-03T07:17:28.292Z,36.60
2022-12-03T07:19:59.089Z,38.60
2022-12-03T07:22:29.614Z,39.70
2022-12-03T07:25:00.725Z,35.80
2022-12-03T07:27:31.218Z,36.60
2022-12-03T07:30:02.115Z,33.60
2022-12-03T07:32:32.777Z,35.70
2022-12-03T07:35:07.277Z,34.20
2022-12-03T07:37:37.830Z,32.70
2022-12-03T07:40:09.933Z,37.20
2022-12-03T07:42:40.495Z,34.40
2022-12-03T07:45:12.039Z,36.00
2022-12-03T07:47:42.892Z,38.30
2022-12-03T07:50:14.466Z,32.90
2022-12-03T07:52:45.071Z,30.70
2022-12-03T07:55:15.871Z,35.50
2022-12-03T07:57:46.743Z,35.30
2022-12-03T08:00:20.013Z,33.90
2022-12-03T08:02:50.714Z,33.70
2022-12-03T08:05:21.700Z,36.10
2022-12-03T08:07:53.132Z,36.60
2022-12-03T08:10:24.979Z,35.30
2022-12-03T08:12:56.777Z,33.10
2022-12-03T08:15:32.247Z,33.70
2022-12-03T08:18:13.248Z,33.60
2022-12-03T08:20:44.843Z,35.30
2022-12-03T08:23:16.766Z,33.70
2022-12-03T08:25:47.877Z,36.30
2022-12-03T08:28:20.191Z,34.70
2022-12-03T08:30:59.040Z,38.20
2022-12-03T08:33:31.325Z,38.30
2022-12-03T08:36:02.977Z,33.80
2022-12-03T08:38:33.491Z,37.00
2022-12-03T08:41:04.039Z,34.80
2022-12-03T08:43:35.976Z,36.40
2022-12-03T08:46:06.784Z,36.30
2022-12-03T08:48:44.045Z,36.50
2022-12-03T08:51:24.036Z,39.40
2022-12-03T08:54:01.839Z,33.30
2022-12-03T08:56:34.148Z,33.30
2022-12-03T08:59:20.107Z,33.70
2022-12-03T09:01:51.491Z,34.30
2022-12-03T09:04:37.948Z,36.70
2022-12-03T09:07:08.820Z,38.50
2022-12-03T09:09:39.258Z,38.60
2022-12-03T09:12:10.058Z,37.20
2022-12-03T09:14:40.891Z,38.20
2022-12-03T09:17:11.840Z,34.70
2022-12-03T09:19:46.311Z,36.40
2022-12-03T09:22:18.522Z,30.80
2022-12-03T09:24:49.504Z,36.80
2022-12-03T09:27:22.640Z,39.60
2022-12-03T09:29:53.382Z,38.30
2022-12-03T09:32:25.103Z,36.40
2022-12-03T09:34:56.223Z,35.80
2022-12-03T09:37:27.532Z,35.60
2022-12-03T09:39:58.156Z,39.50
2022-12-03T09:42:29.358Z,39.10
2022-12-03T09:45:00.136Z,39.30
2022-12-03T09:47:31.993Z,37.60
2022-12-03T09:50:02.569Z,38.90
2022-12-03T09:52:34.901Z,37.10
2022-12-03T09:55:09.198Z,38.60
2022-12-03T09:57:40.309Z,38.40
2022-12-03T10:00:16.618Z,42.40
2022-12-03T10:02:47.577Z,43.20
2022-12-03T10:05:19.989Z,39.40
2022-12-03T10:07:52.905Z,41.70
2022-12-03T10:10:25.533Z,38.70
2022-12-03T10:12:56.454Z,41.30
2022-12-03T10:15:27.370Z,40.50
2022-12-03T10:17:58.713Z,40.90
2022-12-03T10:20:29.310Z,40.20
2022-12-03T10:22:59.901Z,39.50
2022-12-03T10:25:30.865Z,43.20
2022-12-03T10:28:02.880Z,45.20
2022-12-03T10:30:33.690Z,40.60
2022-12-03T10:33:17.338Z,39.10
2022-12-03T10:35:49.359Z,41.20
2022-12-03T10:38:22.375Z,43.80
2022-12-03T10:40:52.816Z,43.60
2022-12-03T10:43:24.780Z,41.50
2022-12-03T10:46:12.051Z,37.20
2022-12-03T10:48:43.068Z,40.20
2022-12-03T10:51:17.255Z,42.00
2022-12-03T10:53:48.505Z,39.50
2022-12-03T10:56:25.044Z,40.60
2022-12-03T10:58:56.331Z,43.70
2022-12-03T11:01:28.173Z,41.90
2022-12-03T11:04:04.087Z,40.40
2022-12-03T11:06:34.656Z,41.60
2022-12-03T11:09:09.102Z,41.70
2022-12-03T11:11:39.810Z,40.70
2022-12-03T11:14:11.830Z,39.80
2022-12-03T11:17:08.312Z,46.10
2022-12-03T11:19:52.198Z,46.30
2022-12-03T11:22:41.765Z,43.00
2022-12-03T11:25:25.982Z,41.60
2022-12-03T11:28:10.331Z,45.20
2022-12-03T11:30:59.202Z,48.70
2022-12-03T11:33:30.777Z,43.60
2022-12-03T11:36:15.649Z,43.00
2022-12-03T11:38:54.064Z,46.00
2022-12-03T11:41:26.042Z,48.20
2022-12-03T11:44:01.577Z,45.90
2022-12-03T11:46:39.927Z,44.80
2022-12-03T11:49:23.470Z,41.80
2022-12-03T11:54:24.537Z,41.80
2022-12-03T11:56:56.303Z,44.10
2022-12-03T11:59:27.989Z,41.60
2022-12-03T12:01:58.565Z,43.60
2022-12-03T12:04:31.504Z,40.50
2022-12-03T12:07:02.497Z,41.90
2022-12-03T12:09:51.638Z,42.90
2022-12-03T12:12:33.558Z,41.30
2022-12-03T12:15:24.306Z,41.80
2022-12-03T12:17:54.993Z,44.80
2022-12-03T12:20:28.205Z,43.30
2022-12-03T12:23:18.662Z,43.80
2022-12-03T12:25:53.994Z,40.60
2022-12-03T12:28:24.958Z,42.30
2022-12-03T12:30:55.992Z,45.30
2022-12-03T12:33:27.692Z,42.70
2022-12-03T12:35:58.691Z,45.70
2022-12-03T12:38:29.419Z,46.00
2022-12-03T12:41:04.151Z,48.40
2022-12-03T12:43:39.029Z,48.40
2022-12-03T12:46:46.100Z,43.60
2022-12-03T12:49:10.619Z,42.20
2022-12-03T12:51:44.761Z,39.30
2022-12-03T12:54:16.699Z,41.10
2022-12-03T12:56:50.042Z,39.90
2022-12-03T12:59:21.639Z,41.00
2022-12-03T13:01:52.190Z,43.50
2022-12-03T13:04:23.900Z,40.20
2022-12-03T13:06:54.901Z,38.80
2022-12-03T13:09:26.169Z,36.70
2022-12-03T13:11:59.343Z,37.00
2022-12-03T13:14:32.736Z,40.50
2022-12-03T13:17:11.349Z,40.30
2022-12-03T13:20:00.604Z,40.60
2022-12-03T13:22:33.402Z,43.50
2022-12-03T13:25:09.173Z,45.10
2022-12-03T13:27:39.700Z,38.80
2022-12-03T13:30:15.833Z,38.50
2022-12-03T13:32:46.360Z,39.40
2022-12-03T13:35:24.171Z,36.60
2022-12-03T13:37:54.895Z,38.60
2022-12-03T13:40:28.091Z,41.60
2022-12-03T13:42:58.719Z,40.40
2022-12-03T13:45:32.813Z,45.80
2022-12-03T13:48:04.482Z,42.20
2022-12-03T13:50:36.241Z,43.00
2022-12-03T13:53:15.039Z,45.40
2022-12-03T13:55:46.688Z,45.40
2022-12-03T13:58:17.149Z,45.70
2022-12-03T14:00:48.049Z,44.80
2022-12-03T14:03:18.813Z,43.80
2022-12-03T14:05:49.549Z,44.60
2022-12-03T14:08:20.261Z,48.40
2022-12-03T14:10:55.540Z,40.90
2022-12-03T14:13:29.344Z,44.70
2022-12-03T14:16:00.157Z,46.70
2022-12-03T14:18:31.002Z,44.50
2022-12-03T14:21:01.595Z,41.40
2022-12-03T14:23:32.365Z,41.20
2022-12-03T14:26:03.195Z,42.40
2022-12-03T14:28:33.840Z,40.90
2022-12-03T14:31:04.766Z,40.40
2022-12-03T14:33:35.400Z,42.90
2022-12-03T14:36:06.483Z,40.10
2022-12-03T14:38:36.970Z,40.10
2022-12-03T14:41:28.595Z,43.50
2022-12-03T14:43:59.087Z,39.90
2022-12-03T14:46:29.965Z,40.60
2022-12-03T14:49:00.803Z,42.80
2022-12-03T14:51:31.628Z,42.20
2022-12-03T14:54:02.259Z,44.40
2022-12-03T14:56:32.789Z,41.70
2022-12-03T14:59:03.434Z,41.50
2022-12-03T15:01:34.602Z,43.30
2022-12-03T15:04:06.612Z,44.30
2022-12-03T15:06:37.171Z,37.90
2022-12-03T15:09:07.820Z,42.50
2022-12-03T15:11:44.543Z,42.70
2022-12-03T15:14:16.947Z,44.70
2022-12-03T15:16:47.657Z,42.00
2022-12-03T15:19:18.295Z,41.00
2022-12-03T15:21:49.068Z,41.80
2022-12-03T15:24:19.549Z,41.40
2022-12-03T15:26:52.905Z,42.30
2022-12-03T15:29:24.711Z,39.40
2022-12-03T15:31:55.641Z,43.10
2022-12-03T15:34:26.926Z,40.30
2022-12-03T15:36:57.752Z,41.40
2022-12-03T15:39:29.893Z,44.40
2022-12-03T15:42:00.635Z,46.40
2022-12-03T15:44:31.507Z,39.40
2022-12-03T15:47:02.061Z,42.70
2022-12-03T15:49:32.949Z,41.10
2022-12-03T15:52:04.843Z,43.20
2022-12-03T15:54:35.836Z,42.70
2022-12-03T15:57:06.706Z,41.00
2022-12-03T15:59:37.296Z,42.30
2022-12-03T16:02:08.519Z,41.80
2022-12-03T16:04:39.350Z,41.40
2022-12-03T16:07:10.170Z,40.90
2022-12-03T16:09:40.848Z,39.40
2022-12-03T16:12:12.086Z,42.70
2022-12-03T16:14:42.712Z,43.00
2022-12-03T16:17:13.306Z,39.90
2022-12-03T16:19:44.109Z,41.40
2022-12-03T16:22:14.947Z,42.20
2022-12-03T16:24:45.643Z,42.40
2022-12-03T16:27:18.101Z,41.70
2022-12-03T16:29:50.131Z,43.50
2022-12-03T16:32:20.924Z,38.90
2022-12-03T16:34:51.886Z,40.40
2022-12-03T16:37:22.695Z,39.30
2022-12-03T16:39:54.578Z,42.70
2022-12-03T16:42:27.753Z,43.20
2022-12-03T16:47:41.686Z,39.50
2022-12-03T16:50:20.636Z,46.30
2022-12-03T16:52:55.302Z,43.30
2022-12-03T16:55:25.981Z,41.90
2022-12-03T16:57:57.483Z,40.90
2022-12-03T17:00:28.272Z,42.40
2022-12-03T17:02:59.165Z,42.00
2022-12-03T17:05:29.840Z,47.90
2022-12-03T17:08:00.755Z,44.60
2022-12-03T17:10:31.521Z,45.70
2022-12-03T17:13:10.713Z,47.10
2022-12-03T17:15:41.836Z,46.40
2022-12-03T17:18:12.978Z,46.50
2022-12-03T17:20:43.760Z,46.50
2022-12-03T17:23:14.431Z,48.50
2022-12-03T17:25:44.966Z,48.40
2022-12-03T17:28:15.601Z,46.40
2022-12-03T17:30:46.092Z,46.80
2022-12-03T17:33:17.286Z,49.10
2022-12-03T17:35:47.951Z,51.00
2022-12-03T17:38:18.481Z,52.80
2022-12-03T17:40:48.982Z,47.10
2022-12-03T17:43:19.640Z,52.00
2022-12-03T17:45:50.561Z,45.70
2022-12-03T17:48:21.480Z,47.50
2022-12-03T17:50:52.148Z,52.80
2022-12-03T17:53:22.827Z,47.10
2022-12-03T17:55:53.616Z,49.00
2022-12-03T17:58:24.144Z,49.10
2022-12-03T18:01:00.281Z,46.60
2022-12-03T18:03:33.153Z,50.80
2022-12-03T18:06:03.694Z,51.20
2022-12-03T18:08:34.688Z,49.90
2022-12-03T18:11:05.365Z,49.20
2022-12-03T18:13:36.424Z,42.90
2022-12-03T18:16:07.555Z,45.00
2022-12-03T18:18:38.431Z,40.40
2022-12-03T18:21:09.135Z,41.60
2022-12-03T18:23:40.281Z,43.20
2022-12-03T18:26:10.815Z,41.30
2022-12-03T18:28:41.957Z,41.40
2022-12-03T18:31:14.749Z,41.80
2022-12-03T18:33:45.660Z,40.60
2022-12-03T18:36:18.919Z,44.20
2022-12-03T18:38:52.018Z,40.00
2022-12-03T18:41:23.545Z,43.60
2022-12-03T18:43:54.283Z,41.90
2022-12-03T18:46:51.766Z,41.50
2022-12-03T18:49:15.672Z,39.90
2022-12-03T18:51:46.202Z,43.00
2022-12-03T18:54:17.190Z,44.50
2022-12-03T18:56:47.877Z,46.50
2022-12-03T18:59:19.221Z,42.60
2022-12-03T19:01:49.943Z,41.80
2022-12-03T19:04:21.033Z,42.00
2022-12-03T19:06:51.640Z,41.70
2022-12-03T19:09:22.215Z,41.60
2022-12-03T19:11:52.939Z,41.40
2022-12-03T19:14:23.874Z,43.60
2022-12-03T19:16:54.618Z,41.40
2022-12-03T19:19:28.173Z,40.90
2022-12-03T19:21:58.784Z,41.70
2022-12-03T19:24:31.195Z,39.80
2022-12-03T19:27:01.787Z,41.20
2022-12-03T19:29:32.984Z,42.40
2022-12-03T19:32:03.535Z,40.30
2022-12-03T19:34:34.474Z,39.20
2022-12-03T19:37:05.127Z,40.20
2022-12-03T19:39:35.968Z,37.60
2022-12-03T19:42:06.867Z,37.60
2022-12-03T19:44:37.859Z,40.50
2022-12-03T19:47:08.570Z,39.20
2022-12-03T19:49:39.371Z,42.70
2022-12-03T19:52:10.184Z,42.20
2022-12-03T19:54:40.707Z,40.40
2022-12-03T19:57:11.205Z,39.50
2022-12-03T19:59:43.055Z,36.80
2022-12-03T20:02:13.898Z,38.50
2022-12-03T20:04:44.884Z,41.20
2022-12-03T20:07:15.248Z,36.30
2022-12-03T20:09:46.144Z,39.40
2022-12-03T20:12:16.527Z,39.60
2022-12-03T20:14:47.511Z,44.30
2022-12-03T20:17:17.848Z,41.20
2022-12-03T20:19:49.390Z,42.10
2022-12-03T20:22:19.811Z,38.80
2022-12-03T20:24:50.527Z,40.80
2022-12-03T20:27:23.023Z,42.50
2022-12-03T20:29:54.699Z,40.30
2022-12-03T20:32:25.365Z,39.90
2022-12-03T20:34:56.157Z,39.70
2022-12-03T20:37:26.705Z,41.60
2022-12-03T20:39:57.648Z,42.90
2022-12-03T20:42:28.394Z,39.60
2022-12-03T20:44:59.632Z,42.20
2022-12-03T20:47:30.261Z,44.70
2022-12-03T20:50:01.510Z,37.90
2022-12-03T20:52:32.042Z,41.70
2022-12-03T20:55:02.931Z,42.80
2022-12-03T20:57:33.297Z,40.50
2022-12-03T21:00:05.565Z,44.00
2022-12-03T21:02:36.061Z,39.10
2022-12-03T21:05:07.528Z,41.90
2022-12-03T21:07:37.998Z,39.50
2022-12-03T21:10:30.415Z,41.60
2022-12-03T21:13:01.197Z,39.40
2022-12-03T21:15:32.288Z,40.10
2022-12-03T21:18:02.678Z,39.40
2022-12-03T21:20:33.857Z,40.40
2022-12-03T21:23:04.393Z,41.00
2022-12-03T21:25:35.233Z,40.00
2022-12-03T21:28:06.371Z,38.40
2022-12-03T21:30:39.030Z,40.30
2022-12-03T21:33:09.493Z,42.50
2022-12-03T21:35:40.491Z,42.40
2022-12-03T21:38:11.961Z,41.80
2022-12-03T21:40:42.666Z,42.50
2022-12-03T21:43:13.122Z,41.50
2022-12-03T21:45:44.001Z,40.40
2022-12-03T21:48:14.486Z,43.20
2022-12-03T21:50:45.743Z,44.70
2022-12-03T21:53:16.359Z,48.70
2022-12-03T21:55:47.103Z,44.00
2022-12-03T21:58:17.523Z,44.30
2022-12-03T22:00:48.575Z,44.20
2022-12-03T22:03:19.404Z,43.90
2022-12-03T22:05:50.490Z,46.20
2022-12-03T22:08:20.930Z,43.00
2022-12-03T22:10:51.868Z,42.90
2022-12-03T22:13:22.430Z,48.90
2022-12-03T22:15:53.239Z,47.40
2022-12-03T22:18:23.787Z,49.90
2022-12-03T22:20:54.631Z,54.50
2022-12-03T22:23:25.058Z,51.80
2022-12-03T22:26:00.284Z,46.70
2022-12-03T22:28:31.244Z,50.90
2022-12-03T22:31:02.152Z,53.60
2022-12-03T22:33:32.899Z,55.20
2022-12-03T22:36:05.892Z,53.00
2022-12-03T22:38:36.310Z,50.90
2022-12-03T22:41:07.576Z,49.40
2022-12-03T22:43:38.399Z,48.60
2022-12-03T22:46:11.294Z,50.00
2022-12-03T22:48:42.095Z,46.60
2022-12-03T22:51:13.414Z,48.60
2022-12-03T22:53:43.795Z,50.20
2022-12-03T22:56:14.582Z,49.20
2022-12-03T22:58:45.147Z,45.00
2022-12-03T23:01:22.610Z,44.20
2022-12-03T23:03:53.174Z,47.20
2022-12-03T23:06:24.716Z,46.40
2022-12-03T23:08:55.920Z,45.90
2022-12-03T23:11:27.256Z,46.50
2022-12-03T23:13:59.176Z,49.00
2022-12-03T23:16:31.104Z,42.80
2022-12-03T23:19:02.335Z,42.90
2022-12-03T23:21:34.298Z,40.70
2022-12-03T23:24:05.965Z,46.90
2022-12-03T23:26:38.627Z,41.60
2022-12-03T23:29:09.146Z,42.30
2022-12-03T23:31:39.969Z,43.90
2022-12-03T23:34:10.427Z,45.40
2022-12-03T23:36:41.295Z,39.90
2022-12-03T23:39:11.618Z,43.30
2022-12-03T23:41:42.285Z,43.20
2022-12-03T23:44:12.787Z,45.30
2022-12-03T23:46:43.795Z,41.20
2022-12-03T23:49:14.332Z,42.10
2022-12-03T23:51:45.190Z,43.00
2022-12-03T23:54:15.608Z,40.30
2022-12-03T23:56:46.560Z,39.10
2022-12-03T23:59:16.888Z,40.60
